createdAt,value
2023-04-18T00:01:24.996Z,9.45
2023-04-18T00:03:52.328Z,11.38
2023-04-18T00:06:22.130Z,12.85
2023-04-18T00:08:49.321Z,14.27
2023-04-18T00:11:16.345Z,13.27
2023-04-18T00:13:44.341Z,12.07
2023-04-18T00:16:13.315Z,11.25
2023-04-18T00:18:40.613Z,9.95
2023-04-18T00:21:08.692Z,10.10
2023-04-18T00:23:36.091Z,11.15
2023-04-18T00:26:03.410Z,12.40
2023-04-18T00:28:30.651Z,12.98
2023-04-18T00:30:57.657Z,12.07
2023-04-18T00:33:24.762Z,11.52
2023-04-18T00:35:53.443Z,12.77
2023-04-18T00:38:20.493Z,13.02
2023-04-18T00:40:48.319Z,11.70
2023-04-18T00:43:17.013Z,12.93
2023-04-18T00:45:44.570Z,11.82
2023-04-18T00:48:12.064Z,13.75
2023-04-18T00:50:41.685Z,11.88
2023-04-18T00:53:11.181Z,11.25
2023-04-18T00:55:39.607Z,11.13
2023-04-18T00:58:06.901Z,12.75
2023-04-18T01:00:34.393Z,12.98
2023-04-18T01:03:01.754Z,11.73
2023-04-18T01:05:29.027Z,11.18
2023-04-18T01:08:01.064Z,12.77
2023-04-18T01:10:29.907Z,12.20
2023-04-18T01:13:23.288Z,11.73
2023-04-18T01:15:51.702Z,14.77
2023-04-18T01:18:19.167Z,14.38
2023-04-18T01:20:54.908Z,14.05
2023-04-18T01:23:21.833Z,12.05
2023-04-18T01:25:51.935Z,11.40
2023-04-18T01:28:23.749Z,10.60
2023-04-18T01:30:50.801Z,11.40
2023-04-18T01:33:17.846Z,16.33
2023-04-18T01:35:47.384Z,13.95
2023-04-18T01:38:14.434Z,11.38
2023-04-18T01:40:41.428Z,13.43
2023-04-18T01:43:08.685Z,12.82
2023-04-18T01:45:38.083Z,12.95
2023-04-18T01:48:06.071Z,11.35
2023-04-18T01:50:33.432Z,11.15
2023-04-18T01:53:00.480Z,13.77
2023-04-18T01:55:27.503Z,12.15
2023-04-18T01:57:55.216Z,12.82
2023-04-18T02:00:22.694Z,10.68
2023-04-18T02:02:50.520Z,13.20
2023-04-18T02:05:17.755Z,13.57
2023-04-18T02:07:45.526Z,11.40
2023-04-18T02:10:12.617Z,11.75
2023-04-18T02:12:39.606Z,11.13
2023-04-18T02:15:07.436Z,13.27
2023-04-18T02:17:36.747Z,13.50
2023-04-18T02:20:04.732Z,14.45
2023-04-18T02:22:31.875Z,12.27
2023-04-18T02:25:00.805Z,12.57
2023-04-18T02:27:27.900Z,12.85
2023-04-18T02:29:57.185Z,14.70
2023-04-18T02:32:24.883Z,13.45
2023-04-18T02:34:51.949Z,13.27
2023-04-18T02:37:19.282Z,11.70
2023-04-18T02:39:46.369Z,13.07
2023-04-18T02:42:13.479Z,11.73
2023-04-18T02:44:40.620Z,15.43
2023-04-18T02:47:07.667Z,11.50
2023-04-18T02:49:38.294Z,14.02
2023-04-18T02:52:05.383Z,12.52
2023-04-18T02:54:32.363Z,15.45
2023-04-18T02:57:05.591Z,13.43
2023-04-18T02:59:53.335Z,13.32
2023-04-18T03:02:58.752Z,12.88
2023-04-18T03:05:35.613Z,13.05
2023-04-18T03:08:04.967Z,11.80
2023-04-18T03:10:32.036Z,11.45
2023-04-18T03:12:59.162Z,10.68
2023-04-18T03:15:28.247Z,13.85
2023-04-18T03:17:55.374Z,13.45
2023-04-18T03:20:23.801Z,13.30
2023-04-18T03:22:52.650Z,11.20
2023-04-18T03:25:24.324Z,11.10
2023-04-18T03:27:53.612Z,13.63
2023-04-18T03:30:22.928Z,12.32
2023-04-18T03:32:56.204Z,13.30
2023-04-18T03:35:23.719Z,12.40
2023-04-18T03:37:51.029Z,10.30
2023-04-18T03:40:26.531Z,10.38
2023-04-18T03:42:59.653Z,14.30
2023-04-18T03:45:27.004Z,12.43
2023-04-18T03:47:55.206Z,12.52
2023-04-18T03:50:24.445Z,13.13
2023-04-18T03:52:52.850Z,12.13
2023-04-18T03:55:20.765Z,12.70
2023-04-18T03:57:48.088Z,10.48
2023-04-18T04:00:22.846Z,11.80
2023-04-18T04:03:00.118Z,12.73
2023-04-18T04:05:28.046Z,11.10
2023-04-18T04:07:55.160Z,10.27
2023-04-18T04:10:23.178Z,10.80
2023-04-18T04:12:51.334Z,10.93
2023-04-18T04:15:19.001Z,9.77
2023-04-18T04:18:01.443Z,11.18
2023-04-18T04:20:29.088Z,12.68
2023-04-18T04:23:03.964Z,11.55
2023-04-18T04:25:34.082Z,10.98
2023-04-18T04:28:06.782Z,11.00
2023-04-18T04:30:41.712Z,9.90
2023-04-18T04:33:09.055Z,10.07
2023-04-18T04:35:36.784Z,10.45
2023-04-18T04:38:05.745Z,11.35
2023-04-18T04:40:40.356Z,9.80
2023-04-18T04:43:12.692Z,10.90
2023-04-18T04:45:42.389Z,11.38
2023-04-18T04:48:10.256Z,12.52
2023-04-18T04:50:40.366Z,12.43
2023-04-18T04:53:08.381Z,12.57
2023-04-18T04:55:36.142Z,11.30
2023-04-18T04:58:06.065Z,13.70
2023-04-18T05:00:44.223Z,11.60
2023-04-18T05:03:16.763Z,11.95
2023-04-18T05:05:48.182Z,12.73
2023-04-18T05:08:15.320Z,11.48
2023-04-18T05:10:43.346Z,12.35
2023-04-18T05:13:10.622Z,11.52
2023-04-18T05:15:37.598Z,12.52
2023-04-18T05:18:04.910Z,13.57
2023-04-18T05:20:32.050Z,12.27
2023-04-18T05:22:59.144Z,12.77
2023-04-18T05:25:35.216Z,11.95
2023-04-18T05:28:04.837Z,13.48
2023-04-18T05:30:31.985Z,12.32
2023-04-18T05:32:58.979Z,11.73
2023-04-18T05:35:26.209Z,11.02
2023-04-18T05:37:53.234Z,11.95
2023-04-18T05:40:20.416Z,11.25
2023-04-18T05:42:47.304Z,11.40
2023-04-18T05:45:14.335Z,12.70
2023-04-18T05:47:41.464Z,11.75
2023-04-18T05:50:09.221Z,10.13
2023-04-18T05:52:39.031Z,11.48
2023-04-18T05:55:07.133Z,10.38
2023-04-18T05:57:34.145Z,11.63
2023-04-18T06:00:01.088Z,12.35
2023-04-18T06:02:28.273Z,9.88
2023-04-18T06:04:56.719Z,13.38
2023-04-18T06:07:25.370Z,11.57
2023-04-18T06:09:53.976Z,12.05
2023-04-18T06:12:21.044Z,11.13
2023-04-18T06:14:49.398Z,10.07
2023-04-18T06:17:16.454Z,12.52
2023-04-18T06:19:43.392Z,13.40
2023-04-18T06:22:10.359Z,10.80
2023-04-18T06:24:37.434Z,10.32
2023-04-18T06:27:05.754Z,12.10
2023-04-18T06:29:34.658Z,10.70
2023-04-18T06:32:03.504Z,13.00
2023-04-18T06:34:30.506Z,11.45
2023-04-18T06:36:57.523Z,10.48
2023-04-18T06:39:24.661Z,9.57
2023-04-18T06:41:51.596Z,10.48
2023-04-18T06:44:28.042Z,8.38
2023-04-18T06:46:55.684Z,9.65
2023-04-18T06:49:26.492Z,9.38
2023-04-18T06:51:54.097Z,10.88
2023-04-18T06:54:21.138Z,8.32
2023-04-18T06:56:48.201Z,9.80
2023-04-18T06:59:15.270Z,8.88
2023-04-18T07:01:42.409Z,9.18
2023-04-18T07:04:09.748Z,8.82
2023-04-18T07:06:37.630Z,8.85
2023-04-18T07:09:04.675Z,9.75
2023-04-18T07:11:31.629Z,8.68
2023-04-18T07:13:58.640Z,10.73
2023-04-18T07:16:25.952Z,9.13
2023-04-18T07:18:53.046Z,9.25
2023-04-18T07:21:19.982Z,9.70
2023-04-18T07:23:46.956Z,10.02
2023-04-18T07:26:14.043Z,8.65
2023-04-18T07:28:41.083Z,8.88
2023-04-18T07:31:11.424Z,7.90
2023-04-18T07:33:38.813Z,8.43
2023-04-18T07:36:06.275Z,6.88
2023-04-18T07:38:35.267Z,7.57
2023-04-18T07:41:03.500Z,9.98
2023-04-18T07:43:30.922Z,6.30
2023-04-18T07:45:58.100Z,7.20
2023-04-18T07:48:28.115Z,7.35
2023-04-18T07:50:55.190Z,7.18
2023-04-18T07:53:22.238Z,8.50
2023-04-18T07:55:50.176Z,7.07
2023-04-18T07:58:17.748Z,7.75
2023-04-18T08:00:44.960Z,10.65
2023-04-18T08:03:13.012Z,7.00
2023-04-18T08:05:42.955Z,8.73
2023-04-18T08:08:11.876Z,9.15
2023-04-18T08:10:39.547Z,7.38
2023-04-18T08:13:06.940Z,7.13
2023-04-18T08:15:34.151Z,7.03
2023-04-18T08:18:01.913Z,8.48
2023-04-18T08:20:29.185Z,6.07
2023-04-18T08:25:26.289Z,7.03
2023-04-18T08:27:53.272Z,6.30
2023-04-18T08:30:20.489Z,8.98
2023-04-18T08:32:47.501Z,8.25
2023-04-18T08:35:14.606Z,6.97
2023-04-18T08:37:41.817Z,8.80
2023-04-18T08:40:09.181Z,7.30
2023-04-18T08:42:38.356Z,8.43
2023-04-18T08:45:07.026Z,7.47
2023-04-18T08:47:35.660Z,6.32
2023-04-18T08:50:03.185Z,6.55
2023-04-18T08:52:32.002Z,5.70
2023-04-18T08:54:58.969Z,6.13
2023-04-18T08:57:30.114Z,5.50
2023-04-18T09:00:00.685Z,5.65
2023-04-18T09:02:46.910Z,5.10
2023-04-18T09:05:19.732Z,8.38
2023-04-18T09:07:49.612Z,6.15
2023-04-18T09:10:34.161Z,6.85
2023-04-18T09:13:03.556Z,6.53
2023-04-18T09:15:31.289Z,7.53
2023-04-18T09:18:02.777Z,6.68
2023-04-18T09:20:35.852Z,5.93
2023-04-18T09:23:14.482Z,8.45
2023-04-18T09:25:44.301Z,6.82
2023-04-18T09:28:30.687Z,8.00
2023-04-18T09:31:17.897Z,6.47
2023-04-18T09:33:56.690Z,6.60
2023-04-18T09:36:31.146Z,6.65
2023-04-18T09:38:58.379Z,5.90
2023-04-18T09:41:25.437Z,8.15
2023-04-18T09:44:17.115Z,9.02
2023-04-18T09:46:47.174Z,6.10
2023-04-18T09:49:16.132Z,9.07
2023-04-18T09:51:44.791Z,5.75
2023-04-18T09:54:16.348Z,6.28
2023-04-18T09:56:50.373Z,6.95
2023-04-18T09:59:41.051Z,7.28
2023-04-18T10:02:19.695Z,5.22
2023-04-18T10:04:48.902Z,5.75
2023-04-18T10:07:17.587Z,6.72
2023-04-18T10:09:49.244Z,6.97
2023-04-18T10:12:18.454Z,7.63
2023-04-18T10:14:45.892Z,5.90
2023-04-18T10:17:14.923Z,6.05
2023-04-18T10:19:44.267Z,5.68
2023-04-18T10:22:12.250Z,5.43
2023-04-18T10:24:49.681Z,4.25
2023-04-18T10:27:18.797Z,4.95
2023-04-18T10:29:51.691Z,5.57
2023-04-18T10:32:23.453Z,6.28
2023-04-18T10:34:53.588Z,5.85
2023-04-18T10:37:20.684Z,6.50
2023-04-18T10:40:11.073Z,6.63
2023-04-18T10:42:47.112Z,6.07
2023-04-18T10:45:25.298Z,5.05
2023-04-18T10:48:32.670Z,7.10
2023-04-18T10:51:18.903Z,6.00
2023-04-18T10:53:57.450Z,6.28
2023-04-18T10:56:26.114Z,7.57
2023-04-18T10:58:53.822Z,6.85
2023-04-18T11:01:33.177Z,7.00
2023-04-18T11:04:01.290Z,8.68
2023-04-18T11:06:29.084Z,7.10
2023-04-18T11:09:13.725Z,7.03
2023-04-18T11:11:41.833Z,7.63
2023-04-18T11:14:09.009Z,7.45
2023-04-18T11:16:36.406Z,7.25
2023-04-18T11:19:23.539Z,10.75
2023-04-18T11:21:51.799Z,8.45
2023-04-18T11:24:24.098Z,8.90
2023-04-18T11:26:55.657Z,7.50
2023-04-18T11:29:22.959Z,8.23
2023-04-18T11:31:55.283Z,8.40
2023-04-18T11:34:30.743Z,7.78
2023-04-18T11:36:58.203Z,9.20
2023-04-18T11:39:25.499Z,7.75
2023-04-18T11:41:52.974Z,9.15
2023-04-18T11:44:24.922Z,9.43
2023-04-18T11:46:53.084Z,9.40
2023-04-18T11:49:32.097Z,8.18
2023-04-18T11:52:01.075Z,9.10
2023-04-18T11:54:42.198Z,9.20
2023-04-18T11:57:21.352Z,8.02
2023-04-18T11:59:56.808Z,8.77
2023-04-18T12:02:40.499Z,10.27
2023-04-18T12:05:08.188Z,9.13
2023-04-18T12:07:47.912Z,9.02
2023-04-18T12:10:28.158Z,9.77
2023-04-18T12:13:00.935Z,9.60
2023-04-18T12:15:29.810Z,9.23
2023-04-18T12:18:00.747Z,9.32
2023-04-18T12:20:39.928Z,10.77
2023-04-18T12:23:07.797Z,14.43
2023-04-18T12:25:35.083Z,9.70
2023-04-18T12:28:14.809Z,10.20
2023-04-18T12:30:42.402Z,10.90
2023-04-18T12:33:09.665Z,10.57
2023-04-18T12:35:36.720Z,14.43
2023-04-18T12:38:07.986Z,11.30
2023-04-18T12:40:35.052Z,12.13
2023-04-18T12:43:03.803Z,11.55
2023-04-18T12:45:32.900Z,12.20
2023-04-18T12:48:00.238Z,12.68
2023-04-18T12:50:27.509Z,11.75
2023-04-18T12:52:59.116Z,12.18
2023-04-18T12:55:26.996Z,11.48
2023-04-18T12:57:55.621Z,14.32
2023-04-18T13:00:28.014Z,12.75
2023-04-18T13:02:55.940Z,13.02
2023-04-18T13:05:29.165Z,11.02
2023-04-18T13:08:15.139Z,13.30
2023-04-18T13:10:43.983Z,15.05
2023-04-18T13:13:11.005Z,15.25
2023-04-18T13:15:39.756Z,12.68
2023-04-18T13:18:07.186Z,14.55
2023-04-18T13:20:34.405Z,14.95
2023-04-18T13:23:04.417Z,13.45
2023-04-18T13:25:31.642Z,13.45
2023-04-18T13:28:00.772Z,13.43
2023-04-18T13:30:28.119Z,14.77
2023-04-18T13:32:55.346Z,13.27
2023-04-18T13:35:22.474Z,15.57
2023-04-18T13:37:49.611Z,15.23
2023-04-18T13:40:16.622Z,13.30
2023-04-18T13:42:43.636Z,14.15
2023-04-18T13:45:11.196Z,14.85
2023-04-18T13:47:38.369Z,14.30
2023-04-18T13:50:06.505Z,15.93
2023-04-18T13:52:33.472Z,15.45
2023-04-18T13:55:01.074Z,15.50
2023-04-18T13:57:28.451Z,15.70
2023-04-18T13:59:55.585Z,12.30
2023-04-18T14:02:22.903Z,18.90
2023-04-18T14:04:51.756Z,15.60
2023-04-18T14:07:18.805Z,17.08
2023-04-18T14:09:48.162Z,16.33
2023-04-18T14:12:15.280Z,17.35
2023-04-18T14:14:42.283Z,16.02
2023-04-18T14:17:09.249Z,15.02
2023-04-18T14:19:36.607Z,14.75
2023-04-18T14:22:03.614Z,14.70
2023-04-18T14:24:30.619Z,16.20
2023-04-18T14:26:57.507Z,13.23
2023-04-18T14:29:24.559Z,12.27
2023-04-18T14:31:51.524Z,12.52
2023-04-18T14:34:18.558Z,12.43
2023-04-18T14:36:45.616Z,12.57
2023-04-18T14:39:13.244Z,12.63
2023-04-18T14:41:40.454Z,13.82
2023-04-18T14:44:07.408Z,15.23
2023-04-18T14:46:34.484Z,14.90
2023-04-18T14:49:01.499Z,14.32
2023-04-18T14:51:28.434Z,14.73
2023-04-18T14:53:55.627Z,12.80
2023-04-18T14:56:24.242Z,14.07
2023-04-18T14:58:51.303Z,12.77
2023-04-18T15:01:18.602Z,12.32
2023-04-18T15:03:46.092Z,12.32
2023-04-18T15:06:13.343Z,11.63
2023-04-18T15:08:40.587Z,15.07
2023-04-18T15:11:08.239Z,15.88
2023-04-18T15:13:35.825Z,14.10
2023-04-18T15:16:03.222Z,13.90
2023-04-18T15:18:30.327Z,13.52
2023-04-18T15:21:00.033Z,13.40
2023-04-18T15:23:28.290Z,13.07
2023-04-18T15:25:56.322Z,14.75
2023-04-18T15:28:23.345Z,14.80
2023-04-18T15:30:50.516Z,13.02
2023-04-18T15:33:19.071Z,14.13
2023-04-18T15:35:47.756Z,13.38
2023-04-18T15:38:14.848Z,12.65
2023-04-18T15:40:43.433Z,14.00
2023-04-18T15:43:10.570Z,13.30
2023-04-18T15:45:37.564Z,12.07
2023-04-18T15:48:04.852Z,13.23
2023-04-18T15:50:33.638Z,13.07
2023-04-18T15:53:01.922Z,12.27
2023-04-18T15:55:29.007Z,12.02
2023-04-18T15:57:56.267Z,13.00
2023-04-18T16:00:23.959Z,12.23
2023-04-18T16:02:51.331Z,12.55
2023-04-18T16:05:18.545Z,13.02
2023-04-18T16:07:45.764Z,13.02
2023-04-18T16:10:15.069Z,11.20
2023-04-18T16:12:42.191Z,13.00
2023-04-18T16:15:10.060Z,12.75
2023-04-18T16:17:38.037Z,11.88
2023-04-18T16:20:08.264Z,11.98
2023-04-18T16:22:35.929Z,9.70
2023-04-18T16:25:04.527Z,11.93
2023-04-18T16:27:32.220Z,10.57
2023-04-18T16:29:59.306Z,10.48
2023-04-18T16:32:27.614Z,10.90
2023-04-18T16:34:54.664Z,11.45
2023-04-18T16:37:21.769Z,11.43
2023-04-18T16:39:48.723Z,10.85
2023-04-18T16:42:16.411Z,11.35
2023-04-18T16:44:45.158Z,10.20
2023-04-18T16:47:12.167Z,11.95
2023-04-18T16:49:39.435Z,11.02
2023-04-18T16:52:06.441Z,12.05
2023-04-18T16:54:33.460Z,12.88
2023-04-18T16:57:00.854Z,12.27
2023-04-18T16:59:27.883Z,12.82
2023-04-18T17:01:54.994Z,10.15
2023-04-18T17:04:23.144Z,11.40
2023-04-18T17:06:52.197Z,10.38
2023-04-18T17:09:19.754Z,10.45
2023-04-18T17:11:46.947Z,10.38
2023-04-18T17:14:15.029Z,10.88
2023-04-18T17:16:43.055Z,11.15
2023-04-18T17:19:11.131Z,11.32
2023-04-18T17:21:38.461Z,12.40
2023-04-18T17:24:07.043Z,9.75
2023-04-18T17:26:36.884Z,11.65
2023-04-18T17:29:04.773Z,11.20
2023-04-18T17:31:32.531Z,9.95
2023-04-18T17:34:00.713Z,10.43
2023-04-18T17:36:27.963Z,11.15
2023-04-18T17:38:55.966Z,11.25
2023-04-18T17:41:23.225Z,10.70
2023-04-18T17:43:53.320Z,10.40
2023-04-18T17:46:20.443Z,12.82
2023-04-18T17:48:48.592Z,10.90
2023-04-18T17:51:19.329Z,11.25
2023-04-18T17:53:46.875Z,11.80
2023-04-18T17:56:13.854Z,10.40
2023-04-18T17:58:41.222Z,9.35
2023-04-18T18:01:18.773Z,9.88
2023-04-18T18:03:47.213Z,9.45
2023-04-18T18:06:15.574Z,10.02
2023-04-18T18:08:43.272Z,9.38
2023-04-18T18:11:10.866Z,10.52
2023-04-18T18:13:40.851Z,9.23
2023-04-18T18:16:08.804Z,10.10
2023-04-18T18:18:36.837Z,9.50
2023-04-18T18:21:04.014Z,10.38
2023-04-18T18:23:31.307Z,8.95
2023-04-18T18:25:58.367Z,9.27
2023-04-18T18:28:25.454Z,9.13
2023-04-18T18:30:53.513Z,10.63
2023-04-18T18:33:20.756Z,10.88
2023-04-18T18:35:47.664Z,10.63
2023-04-18T18:38:14.608Z,10.55
2023-04-18T18:40:41.640Z,10.63
2023-04-18T18:43:08.655Z,9.82
2023-04-18T18:45:35.636Z,9.85
2023-04-18T18:48:03.954Z,10.10
2023-04-18T18:50:31.043Z,12.65
2023-04-18T18:52:58.027Z,10.75
2023-04-18T18:55:25.038Z,10.50
2023-04-18T18:57:52.008Z,9.68
2023-04-18T19:00:19.406Z,10.40
2023-04-18T19:02:46.649Z,11.27
2023-04-18T19:05:13.934Z,10.02
2023-04-18T19:07:43.813Z,10.35
2023-04-18T19:10:11.173Z,11.40
2023-04-18T19:12:38.357Z,10.93
2023-04-18T19:15:06.479Z,12.60
2023-04-18T19:17:33.581Z,9.63
2023-04-18T19:20:01.615Z,10.05
2023-04-18T19:22:30.023Z,11.00
2023-04-18T19:24:57.453Z,11.85
2023-04-18T19:27:24.442Z,8.68
2023-04-18T19:29:51.474Z,12.10
2023-04-18T19:32:18.549Z,10.15
2023-04-18T19:34:45.713Z,10.00
2023-04-18T19:37:12.726Z,12.00
2023-04-18T19:39:39.754Z,10.07
2023-04-18T19:42:07.400Z,11.90
2023-04-18T19:44:34.897Z,9.68
2023-04-18T19:47:01.978Z,9.52
2023-04-18T19:49:29.116Z,13.95
2023-04-18T19:51:56.213Z,13.48
2023-04-18T19:54:23.127Z,9.35
2023-04-18T19:56:50.479Z,9.48
2023-04-18T19:59:17.435Z,13.93
2023-04-18T20:01:44.660Z,11.15
2023-04-18T20:04:11.904Z,9.38
2023-04-18T20:06:39.030Z,13.50
2023-04-18T20:09:06.289Z,9.13
2023-04-18T20:11:33.573Z,10.73
2023-04-18T20:14:00.997Z,9.73
2023-04-18T20:16:28.082Z,9.30
2023-04-18T20:18:56.038Z,10.38
2023-04-18T20:21:23.054Z,10.35
2023-04-18T20:23:50.015Z,10.95
2023-04-18T20:26:16.917Z,10.35
2023-04-18T20:28:43.969Z,10.00
2023-04-18T20:31:12.218Z,11.48
2023-04-18T20:33:39.415Z,10.23
2023-04-18T20:36:07.452Z,9.98
2023-04-18T20:38:34.618Z,11.57
2023-04-18T20:41:02.091Z,11.02
2023-04-18T20:43:29.089Z,11.20
2023-04-18T20:45:58.625Z,10.10
2023-04-18T20:48:25.810Z,9.02
2023-04-18T20:50:52.860Z,9.60
2023-04-18T20:53:21.736Z,10.52
2023-04-18T20:55:49.145Z,10.18
2023-04-18T20:58:16.198Z,9.82
2023-04-18T21:00:44.587Z,10.48
2023-04-18T21:03:15.843Z,10.30
2023-04-18T21:05:44.929Z,9.05
2023-04-18T21:08:12.101Z,8.93
2023-04-18T21:10:39.692Z,9.80
2023-04-18T21:13:06.792Z,10.02
2023-04-18T21:15:35.595Z,11.82
2023-04-18T21:18:02.848Z,11.57
2023-04-18T21:20:30.043Z,10.32
2023-04-18T21:22:57.009Z,12.25
2023-04-18T21:25:24.018Z,9.75
2023-04-18T21:27:51.264Z,9.90
2023-04-18T21:30:18.305Z,9.98
2023-04-18T21:32:47.197Z,12.20
2023-04-18T21:35:16.046Z,11.18
2023-04-18T21:37:44.183Z,9.65
2023-04-18T21:40:11.538Z,9.88
2023-04-18T21:42:38.580Z,10.25
2023-04-18T21:45:06.545Z,9.80
2023-04-18T21:47:33.519Z,13.18
2023-04-18T21:50:00.491Z,10.15
2023-04-18T21:52:27.413Z,10.85
2023-04-18T21:54:54.448Z,13.40
2023-04-18T21:57:21.733Z,9.73
2023-04-18T21:59:48.784Z,11.77
2023-04-18T22:02:15.957Z,11.70
2023-04-18T22:04:44.129Z,10.18
2023-04-18T22:07:12.407Z,12.73
2023-04-18T22:09:39.830Z,10.50
2023-04-18T22:12:07.701Z,10.82
2023-04-18T22:14:35.180Z,12.55
2023-04-18T22:17:04.705Z,11.43
2023-04-18T22:19:32.381Z,11.50
2023-04-18T22:21:59.359Z,12.95
2023-04-18T22:24:26.344Z,11.10
2023-04-18T22:26:53.722Z,11.15
2023-04-18T22:29:20.890Z,11.82
2023-04-18T22:31:47.805Z,13.93
2023-04-18T22:34:14.972Z,14.65
2023-04-18T22:36:42.747Z,12.85
2023-04-18T22:39:09.870Z,11.55
2023-04-18T22:41:36.912Z,12.68
2023-04-18T22:44:04.707Z,15.75
2023-04-18T22:46:32.837Z,13.18
2023-04-18T22:49:00.051Z,11.50
2023-04-18T22:51:28.640Z,11.80
2023-04-18T22:53:56.513Z,12.10
2023-04-18T22:56:23.658Z,13.15
2023-04-18T22:58:50.968Z,14.98
2023-04-18T23:01:18.491Z,12.27
2023-04-18T23:03:45.915Z,12.52
2023-04-18T23:06:12.980Z,12.65
2023-04-18T23:08:39.965Z,13.02
2023-04-18T23:11:06.905Z,11.23
2023-04-18T23:13:33.861Z,12.07
2023-04-18T23:16:00.888Z,13.02
2023-04-18T23:18:30.742Z,12.13
2023-04-18T23:20:59.753Z,13.00
2023-04-18T23:23:27.001Z,11.30
2023-04-18T23:25:53.992Z,11.65
2023-04-18T23:28:21.362Z,13.85
2023-04-18T23:30:50.110Z,11.50
2023-04-18T23:33:17.136Z,13.40
2023-04-18T23:35:44.236Z,12.45
2023-04-18T23:38:11.211Z,13.85
2023-04-18T23:40:38.161Z,11.18
2023-04-18T23:43:05.136Z,11.93
2023-04-18T23:45:32.181Z,12.45
2023-04-18T23:47:59.163Z,13.10
2023-04-18T23:50:26.353Z,16.65
2023-04-18T23:52:53.352Z,11.85
2023-04-18T23:55:20.465Z,13.20
2023-04-18T23:57:47.404Z,12.57
